Time;durP1;ratioP1;P1;durP2;ratioP2;P2;SDS_P1;SDS_P2;PMS_P1;PMS_P2;Temp;Humidity;BMP_temperature;BMP_pressure;BME280_temperature;BME280_humidity;BME280_pressure;Samples;Min_cycle;Max_cycle;Signal;HPM_P1;HPM_P2
2021/03/11 00:02:12;;;;;;;;;;;;;;;3.80;94.47;100134.41;5097898;28;992;-75
2021/03/11 00:04:38;;;;;;;;;;;;;;;3.76;95.10;100147.09;5113471;28;1197;-74
2021/03/11 00:07:03;;;;;;;;;;;;;;;3.74;95.12;100128.31;5097771;28;1898;-76
2021/03/11 00:09:28;;;;;;;;;;;;;;;3.79;94.87;100118.34;5097220;28;1266;-74
2021/03/11 00:11:53;;;;;;;;;;;;;;;3.82;94.90;100123.97;5098106;28;853;-74
2021/03/11 00:14:19;;;;;;;;;;;;;;;3.80;95.27;100118.03;5097678;28;991;-75
2021/03/11 00:16:44;;;;;;;;;;;;;;;3.82;95.18;100085.75;5097718;28;817;-75
2021/03/11 00:19:09;;;;;;;;;;;;;;;3.80;95.70;100082.53;5096016;28;1444;-75
2021/03/11 00:21:35;;;;;;;;;;;;;;;3.79;95.83;100067.28;5097366;28;905;-74
2021/03/11 00:24:00;;;;;;;;;;;;;;;3.83;95.87;100070.19;5097852;28;861;-74
2021/03/11 00:26:25;;;;;;;;;;;;;;;3.81;95.24;100056.84;5097236;28;1898;-74
2021/03/11 00:28:50;;;;;;;;;;;;;;;3.82;95.75;100074.03;5097194;28;1332;-74
2021/03/11 00:31:16;;;;;;;;;;;;;;;3.89;95.94;100066.16;5095920;28;1495;-74
2021/03/11 00:33:41;;;;;;;;;;;;;;;3.83;95.56;100054.59;5097130;28;988;-75
2021/03/11 00:36:07;;;;;;;;;;;;;;;3.85;96.15;100054.28;5097126;28;1043;-73
2021/03/11 00:38:32;;;;;;;;;;;;;;;3.79;95.79;100042.72;5097626;28;1356;-74
2021/03/11 00:40:57;;;;;;;;;;;;;;;3.79;96.84;100029.06;5096462;28;1048;-74
2021/03/11 00:43:22;;;;;;;;;;;;;;;3.84;96.44;100017.97;5097140;28;951;-74
2021/03/11 00:45:49;;;;;;;;;;;;;;;3.81;96.69;99966.72;5096960;28;1975;-74
2021/03/11 00:48:15;;;;;;;;;;;;;;;3.83;96.28;99994.50;5096854;28;1270;-74
2021/03/11 00:50:40;;;;;;;;;;;;;;;3.83;97.04;100001.91;5096874;28;1020;-74
2021/03/11 00:53:05;;;;;;;;;;;;;;;3.84;97.09;99995.31;5097108;28;1003;-74
2021/03/11 00:55:31;;;;;;;;;;;;;;;3.85;96.90;99992.25;5097115;28;995;-74
2021/03/11 00:57:56;;;;;;;;;;;;;;;3.85;97.24;99989.53;5096457;28;1645;-75
2021/03/11 01:00:22;;;;;;;;;;;;;;;3.87;96.94;99981.03;5097250;28;947;-74
2021/03/11 01:02:47;;;;;;;;;;;;;;;3.86;96.96;99972.03;5096711;28;798;-75
2021/03/11 01:05:19;;;;;;;;;;;;;;;3.93;96.85;99968.81;5096512;28;967;-75
2021/03/11 01:07:45;;;;;;;;;;;;;;;3.91;97.01;99960.94;5095337;28;1273;-75
2021/03/11 01:10:11;;;;;;;;;;;;;;;3.99;96.89;99950.34;5095181;28;1249;-75
2021/03/11 01:12:36;;;;;;;;;;;;;;;3.95;96.18;99952.91;5096531;28;991;-74
2021/03/11 01:15:01;;;;;;;;;;;;;;;3.93;96.33;99942.31;5096298;28;812;-75
2021/03/11 01:17:26;;;;;;;;;;;;;;;3.99;96.37;99945.69;5096171;28;903;-74
2021/03/11 01:19:53;;;;;;;;;;;;;;;3.86;97.05;99928.34;5096121;28;1465;-77
2021/03/11 01:22:18;;;;;;;;;;;;;;;3.94;96.96;99924.81;5095240;28;1399;-75
2021/03/11 01:24:43;;;;;;;;;;;;;;;3.95;96.99;99929.13;5096276;28;878;-75
2021/03/11 01:27:09;;;;;;;;;;;;;;;3.98;96.64;99907.75;5096059;28;1968;-75
2021/03/11 01:29:35;;;;;;;;;;;;;;;3.98;96.87;99913.22;5096074;28;1265;-74
2021/03/11 01:32:01;;;;;;;;;;;;;;;3.99;96.89;99912.91;5096314;28;860;-75
2021/03/11 01:34:27;;;;;;;;;;;;;;;3.99;96.30;99893.78;5095968;28;1027;-75
2021/03/11 01:36:52;;;;;;;;;;;;;;;3.96;96.89;99894.41;5096187;28;939;-74
2021/03/11 01:39:18;;;;;;;;;;;;;;;3.94;96.87;99874.81;5095756;28;1340;-74
2021/03/11 01:41:43;;;;;;;;;;;;;;;3.93;96.80;99860.38;5096040;28;931;-74
2021/03/11 01:44:08;;;;;;;;;;;;;;;3.93;97.08;99857.63;5096169;28;912;-74
2021/03/11 01:46:33;;;;;;;;;;;;;;;3.94;97.58;99853.78;5095944;28;1965;-74
2021/03/11 01:48:59;;;;;;;;;;;;;;;3.97;97.28;99860.53;5095543;28;1368;-74
2021/03/11 01:51:25;;;;;;;;;;;;;;;4.00;97.21;99868.06;5095670;28;1019;-75
2021/03/11 01:53:51;;;;;;;;;;;;;;;4.00;97.14;99854.41;5093590;28;1560;-75
2021/03/11 01:56:17;;;;;;;;;;;;;;;4.02;97.45;99857.63;5095880;28;928;-75
2021/03/11 01:58:42;;;;;;;;;;;;;;;4.00;97.47;99851.69;5095392;28;1368;-74
2021/03/11 02:01:10;;;;;;;;;;;;;;;4.00;97.22;99848.94;5095735;28;912;-75
2021/03/11 02:03:36;;;;;;;;;;;;;;;4.01;97.79;99825.16;5094326;28;1004;-76
2021/03/11 02:06:03;;;;;;;;;;;;;;;3.99;97.61;99830.94;5095395;28;1953;-75
2021/03/11 02:08:29;;;;;;;;;;;;;;;4.00;97.54;99823.53;5095362;28;1364;-75
2021/03/11 02:10:55;;;;;;;;;;;;;;;4.01;97.95;99825.16;5095634;28;867;-75
2021/03/11 02:13:31;;;;;;;;;;;;;;;4.01;98.32;99812.28;5095593;28;829;-75
2021/03/11 02:16:13;;;;;;;;;;;;;;;4.01;97.97;99801.38;5095219;28;940;-75
2021/03/11 02:18:50;;;;;;;;;;;;;;;3.93;98.25;99789.34;5095135;28;1321;-76
2021/03/11 02:21:21;;;;;;;;;;;;;;;4.07;98.53;99791.09;5095580;28;857;-74
2021/03/11 02:24:05;;;;;;;;;;;;;;;4.06;98.24;99781.28;5095076;28;1655;-75
2021/03/11 02:26:57;;;;;;;;;;;;;;;4.06;98.39;99773.09;5095215;28;1898;-74
2021/03/11 02:29:42;;;;;;;;;;;;;;;4.06;98.27;99779.34;5094889;28;1297;-76
2021/03/11 02:32:10;;;;;;;;;;;;;;;4.09;98.34;99759.56;5094947;28;1019;-76
2021/03/11 02:34:47;;;;;;;;;;;;;;;4.09;98.74;99726.78;5094923;28;988;-75
2021/03/11 02:37:24;;;;;;;;;;;;;;;4.11;98.83;99748.31;5095419;28;1734;-75
2021/03/11 02:39:55;;;;;;;;;;;;;;;4.10;98.93;99747.53;5093768;28;1313;-75
2021/03/11 02:42:23;;;;;;;;;;;;;;;4.15;98.98;99721.94;5094899;28;1079;-75
2021/03/11 02:44:51;;;;;;;;;;;;;;;4.16;98.87;99696.22;5094790;28;1000;-75
2021/03/11 02:47:16;;;;;;;;;;;;;;;4.15;99.14;99697.34;5093510;28;1959;-76
2021/03/11 02:49:45;;;;;;;;;;;;;;;4.15;98.71;99675.50;5094773;28;1257;-76
2021/03/11 02:52:10;;;;;;;;;;;;;;;4.19;99.09;99684.66;5095202;28;894;-75
2021/03/11 02:54:36;;;;;;;;;;;;;;;4.19;99.11;99681.09;5094994;28;954;-75
2021/03/11 02:57:03;;;;;;;;;;;;;;;4.20;98.92;99678.03;5094521;28;797;-77
2021/03/11 02:59:30;;;;;;;;;;;;;;;4.21;98.99;99674.19;5094609;28;1258;-75
2021/03/11 03:02:00;;;;;;;;;;;;;;;4.20;98.85;99683.50;5094518;28;869;-75
2021/03/11 03:04:28;;;;;;;;;;;;;;;4.23;99.07;99679.31;5096725;28;817;-75
2021/03/11 03:06:53;;;;;;;;;;;;;;;4.24;98.65;99672.72;5098934;28;1889;-75
2021/03/11 03:09:20;;;;;;;;;;;;;;;4.23;99.21;99671.91;5098882;28;1290;-75
2021/03/11 03:11:46;;;;;;;;;;;;;;;4.25;98.87;99649.72;5099094;28;1056;-75
2021/03/11 03:14:12;;;;;;;;;;;;;;;4.24;99.32;99659.88;5098767;28;955;-75
2021/03/11 03:16:38;;;;;;;;;;;;;;;4.27;99.53;99659.22;5098712;28;816;-75
2021/03/11 03:19:04;;;;;;;;;;;;;;;4.28;98.87;99660.81;5098567;28;1344;-76
2021/03/11 03:21:30;;;;;;;;;;;;;;;4.28;99.10;99657.28;5098602;28;931;-75
2021/03/11 03:23:57;;;;;;;;;;;;;;;4.28;99.52;99649.88;5098726;28;1175;-75
2021/03/11 03:26:23;;;;;;;;;;;;;;;4.29;99.38;99656.94;5098527;28;1885;-75
2021/03/11 03:28:48;;;;;;;;;;;;;;;4.32;99.50;99655.47;5098206;28;1321;-75
2021/03/11 03:31:13;;;;;;;;;;;;;;;4.32;99.33;99642.59;5098326;28;1050;-75
2021/03/11 03:33:39;;;;;;;;;;;;;;;4.31;99.61;99641.03;5098291;28;1035;-76
2021/03/11 03:36:04;;;;;;;;;;;;;;;4.32;99.52;99636.34;5097211;28;1408;-75
2021/03/11 03:38:30;;;;;;;;;;;;;;;4.34;99.92;99625.88;5096777;28;1701;-76
2021/03/11 03:41:01;;;;;;;;;;;;;;;4.35;99.67;99635.69;5098646;28;873;-75
2021/03/11 03:43:35;;;;;;;;;;;;;;;4.38;99.32;99613.16;5098848;28;920;-75
2021/03/11 03:46:12;;;;;;;;;;;;;;;4.38;99.16;99618.63;5097036;28;1971;-75
2021/03/11 03:48:43;;;;;;;;;;;;;;;4.38;99.38;99610.44;5098022;28;1269;-76
2021/03/11 03:51:09;;;;;;;;;;;;;;;4.38;99.69;99615.91;5098270;28;1035;-75
2021/03/11 03:53:39;;;;;;;;;;;;;;;4.41;99.52;99596.13;5098173;28;841;-75
2021/03/11 03:56:11;;;;;;;;;;;;;;;4.42;99.97;99594.16;5098627;28;991;-76
2021/03/11 03:58:37;;;;;;;;;;;;;;;4.42;99.49;99597.69;5099628;28;1376;-76
2021/03/11 04:01:03;;;;;;;;;;;;;;;4.44;99.56;99592.69;5098511;28;908;-76
2021/03/11 04:03:31;;;;;;;;;;;;;;;4.44;99.51;99589.16;5100798;28;996;-76
2021/03/11 04:05:57;;;;;;;;;;;;;;;4.45;99.56;99590.78;5106133;28;1885;-76
2021/03/11 04:08:24;;;;;;;;;;;;;;;4.47;99.97;99564.69;5103154;28;1396;-75
2021/03/11 04:10:50;;;;;;;;;;;;;;;4.48;99.42;99560.84;5104425;28;976;-76
2021/03/11 04:13:16;;;;;;;;;;;;;;;4.48;99.72;99566.31;5103968;28;837;-76
2021/03/11 04:15:42;;;;;;;;;;;;;;;4.49;99.99;99558.91;5100600;28;864;-75
2021/03/11 04:18:09;;;;;;;;;;;;;;;4.51;100.00;99554.69;5098286;28;1289;-76
2021/03/11 04:20:35;;;;;;;;;;;;;;;4.52;99.46;99564.50;5097465;28;1058;-76
2021/03/11 04:23:01;;;;;;;;;;;;;;;4.54;99.45;99566.09;5097646;28;823;-75
2021/03/11 04:25:27;;;;;;;;;;;;;;;4.53;99.49;99546.16;5096050;28;1886;-75
2021/03/11 04:27:53;;;;;;;;;;;;;;;4.55;99.64;99537.63;5097285;28;1372;-76
2021/03/11 04:30:19;;;;;;;;;;;;;;;4.55;99.34;99523.94;5097890;28;752;-76
2021/03/11 04:32:45;;;;;;;;;;;;;;;4.56;99.61;99515.41;5097049;28;1168;-76
2021/03/11 04:35:11;;;;;;;;;;;;;;;4.57;99.66;99516.19;5096961;28;954;-75
2021/03/11 04:37:38;;;;;;;;;;;;;;;4.58;99.89;99506.88;5097153;28;1003;-76
2021/03/11 04:40:06;;;;;;;;;;;;;;;4.58;99.79;99493.22;5097217;28;1302;-76
2021/03/11 04:42:32;;;;;;;;;;;;;;;4.57;99.68;99499.81;5096962;28;1117;-76
2021/03/11 04:44:58;;;;;;;;;;;;;;;4.57;99.73;99489.69;5097326;28;793;-77
2021/03/11 04:47:24;;;;;;;;;;;;;;;4.57;99.61;99484.22;5096721;28;1898;-77
2021/03/11 04:49:50;;;;;;;;;;;;;;;4.60;99.58;99463.59;5097829;28;1278;-76
2021/03/11 04:52:16;;;;;;;;;;;;;;;4.61;99.70;99451.53;5113082;28;841;-76
2021/03/11 04:54:42;;;;;;;;;;;;;;;4.61;99.97;99468.72;5096961;28;911;-76
2021/03/11 04:57:07;;;;;;;;;;;;;;;4.64;99.73;99462.59;5095218;28;1265;-77
2021/03/11 04:59:33;;;;;;;;;;;;;;;4.64;99.73;99443.44;5095356;28;1391;-76
2021/03/11 05:02:03;;;;;;;;;;;;;;;4.67;99.86;99452.91;5096872;28;940;-76
2021/03/11 05:04:28;;;;;;;;;;;;;;;4.67;99.99;99436.50;5096596;28;995;-76
2021/03/11 05:06:53;;;;;;;;;;;;;;;4.69;99.61;99435.03;5096479;28;1886;-77
2021/03/11 05:09:19;;;;;;;;;;;;;;;4.70;99.42;99422.94;5096291;28;1257;-75
2021/03/11 05:11:44;;;;;;;;;;;;;;;4.71;99.32;99412.81;5096430;28;919;-76
2021/03/11 05:14:10;;;;;;;;;;;;;;;4.71;99.76;99405.41;5096525;28;809;-76
2021/03/11 05:16:35;;;;;;;;;;;;;;;4.75;99.70;99402.78;5096538;28;975;-75
2021/03/11 05:19:01;;;;;;;;;;;;;;;4.75;99.67;99408.25;5096154;28;1258;-76
2021/03/11 05:21:26;;;;;;;;;;;;;;;4.77;99.77;99391.53;5096534;28;802;-75
2021/03/11 05:23:54;;;;;;;;;;;;;;;4.79;99.42;99392.75;5096145;28;1046;-76
2021/03/11 05:26:19;;;;;;;;;;;;;;;4.83;99.42;99396.44;5095856;28;1886;-76
2021/03/11 05:28:44;;;;;;;;;;;;;;;4.84;99.08;99389.00;5095741;28;1392;-75
2021/03/11 05:31:10;;;;;;;;;;;;;;;4.85;99.15;99376.94;5096031;28;1058;-76
2021/03/11 05:33:35;;;;;;;;;;;;;;;4.87;99.19;99388.34;5095823;28;991;-76
2021/03/11 05:36:00;;;;;;;;;;;;;;;4.90;99.33;99387.66;5096120;28;987;-76
2021/03/11 05:38:26;;;;;;;;;;;;;;;4.90;99.23;99382.19;5096015;28;1250;-76
2021/03/11 05:40:53;;;;;;;;;;;;;;;4.90;98.94;99369.31;5095814;28;1016;-76
2021/03/11 05:43:19;;;;;;;;;;;;;;;4.93;99.31;99347.88;5095797;28;805;-76
2021/03/11 05:45:45;;;;;;;;;;;;;;;4.94;99.29;99333.84;5095827;28;1897;-76
2021/03/11 05:48:14;;;;;;;;;;;;;;;4.94;99.12;99330.34;5095593;28;1274;-76
2021/03/11 05:50:40;;;;;;;;;;;;;;;4.96;99.59;99334.31;5096403;28;920;-77
2021/03/11 05:53:06;;;;;;;;;;;;;;;4.98;99.22;99331.22;5095909;28;1058;-76
2021/03/11 05:55:31;;;;;;;;;;;;;;;5.04;99.34;99327.13;5095719;28;857;-76
2021/03/11 05:57:57;;;;;;;;;;;;;;;5.05;99.53;99331.44;5095426;28;1270;-76
2021/03/11 06:00:23;;;;;;;;;;;;;;;5.08;99.29;99317.88;5095422;28;1084;-76
2021/03/11 06:02:56;;;;;;;;;;;;;;;5.18;99.07;99324.84;5111414;28;1324;-76
2021/03/11 06:05:22;;;;;;;;;;;;;;;5.16;98.64;99304.44;5095651;28;805;-76
2021/03/11 06:07:49;;;;;;;;;;;;;;;5.25;98.61;99302.38;5095171;28;1961;-76
2021/03/11 06:10:16;;;;;;;;;;;;;;;5.30;98.23;99315.03;5095728;28;1440;-76
2021/03/11 06:12:44;;;;;;;;;;;;;;;5.32;98.38;99296.31;5095514;28;867;-76
2021/03/11 06:15:27;;;;;;;;;;;;;;;5.35;98.03;99277.25;5094010;28;1397;-76
2021/03/11 06:17:55;;;;;;;;;;;;;;;5.36;97.80;99245.19;5094983;28;1305;-76
2021/03/11 06:20:20;;;;;;;;;;;;;;;5.47;97.26;99254.53;5095380;28;818;-75
2021/03/11 06:22:46;;;;;;;;;;;;;;;5.49;97.35;99262.38;5095365;28;853;-76
2021/03/11 06:25:14;;;;;;;;;;;;;;;5.53;97.04;99244.13;5095267;28;836;-75
2021/03/11 06:27:39;;;;;;;;;;;;;;;5.54;97.30;99251.97;5093784;28;1886;-75
2021/03/11 06:30:05;;;;;;;;;;;;;;;5.61;96.46;99240.44;5095333;28;1270;-75
2021/03/11 06:32:33;;;;;;;;;;;;;;;5.64;96.80;99246.00;5093916;28;1354;-76
2021/03/11 06:34:58;;;;;;;;;;;;;;;5.71;96.54;99241.84;5094794;28;991;-76
2021/03/11 06:37:44;;;;;;;;;;;;;;;5.76;96.12;99247.91;5076510;28;1271;-76
2021/03/11 06:40:13;;;;;;;;;;;;;;;5.72;96.80;99236.03;5093690;28;1404;-76
2021/03/11 06:42:38;;;;;;;;;;;;;;;5.82;96.18;99221.81;5094984;28;873;-74
2021/03/11 06:45:20;;;;;;;;;;;;;;;5.96;96.11;99213.22;5094964;28;980;-75
2021/03/11 06:47:48;;;;;;;;;;;;;;;6.00;95.78;99207.81;5094960;28;1902;-74
2021/03/11 06:50:13;;;;;;;;;;;;;;;5.98;95.87;99207.38;5095032;28;1321;-75
2021/03/11 06:52:39;;;;;;;;;;;;;;;5.99;95.72;99200.75;5094037;28;1244;-76
2021/03/11 06:55:10;;;;;;;;;;;;;;;6.02;95.31;99200.03;5099297;28;1101;-75
2021/03/11 06:57:37;;;;;;;;;;;;;;;6.06;95.13;99194.69;5094980;28;906;-76
2021/03/11 07:00:18;;;;;;;;;;;;;;;6.06;95.43;99203.69;5095053;28;1413;-75
2021/03/11 07:02:58;;;;;;;;;;;;;;;6.14;94.78;99188.19;5095001;28;821;-74
2021/03/11 07:05:26;;;;;;;;;;;;;;;6.16;94.56;99183.97;5095085;28;817;-76
2021/03/11 07:08:14;;;;;;;;;;;;;;;6.25;94.29;99175.56;5094761;28;2017;-75
2021/03/11 07:10:41;;;;;;;;;;;;;;;6.19;94.94;99201.63;5095530;28;809;-75
2021/03/11 07:13:07;;;;;;;;;;;;;;;6.27;94.92;99169.72;5094711;28;920;-75
2021/03/11 07:15:34;;;;;;;;;;;;;;;6.29;95.15;99173.69;5094508;28;840;-75
2021/03/11 07:18:01;;;;;;;;;;;;;;;6.30;94.92;99179.97;5094278;28;1274;-75
2021/03/11 07:20:29;;;;;;;;;;;;;;;6.37;94.65;99169.19;5094880;28;891;-75
2021/03/11 07:23:02;;;;;;;;;;;;;;;6.52;93.80;99186.75;5095066;28;778;-74
2021/03/11 07:25:32;;;;;;;;;;;;;;;6.65;92.88;99165.50;5094849;28;1020;-75
2021/03/11 07:27:57;;;;;;;;;;;;;;;6.78;92.13;99151.31;5100685;28;1297;-75
2021/03/11 07:30:25;;;;;;;;;;;;;;;6.76;92.32;99172.78;5096539;28;868;-75
2021/03/11 07:32:56;;;;;;;;;;;;;;;6.75;92.35;99168.47;5094440;28;849;-75
2021/03/11 07:35:23;;;;;;;;;;;;;;;6.84;91.00;99172.97;5094442;28;1028;-77
2021/03/11 07:37:54;;;;;;;;;;;;;;;6.88;91.37;99171.88;5095273;28;987;-76
2021/03/11 07:40:20;;;;;;;;;;;;;;;6.90;91.30;99164.09;5096801;28;900;-78
2021/03/11 07:42:45;;;;;;;;;;;;;;;6.99;90.77;99152.09;5097336;28;1036;-80
2021/03/11 07:45:12;;;;;;;;;;;;;;;6.98;91.73;99156.81;5096840;28;867;-78
2021/03/11 07:47:41;;;;;;;;;;;;;;;6.88;92.02;99166.38;5096326;28;1969;-78
2021/03/11 07:50:09;;;;;;;;;;;;;;;6.90;92.02;99186.06;5098044;28;1274;-78
2021/03/11 07:52:34;;;;;;;;;;;;;;;7.03;91.34;99156.50;5101717;28;833;-79
2021/03/11 07:55:03;;;;;;;;;;;;;;;7.17;91.09;99152.47;5100176;28;1285;-78
2021/03/11 07:57:31;;;;;;;;;;;;;;;7.18;91.16;99145.81;5102357;28;1143;-79
2021/03/11 07:59:57;;;;;;;;;;;;;;;7.25;90.23;99130.28;5102816;28;1261;-80
2021/03/11 08:02:24;;;;;;;;;;;;;;;7.46;89.81;99132.66;5100773;28;924;-79
2021/03/11 08:04:57;;;;;;;;;;;;;;;7.78;89.64;99115.91;5102388;28;901;-80
2021/03/11 08:07:24;;;;;;;;;;;;;;;8.20;86.73;99094.97;5101523;28;1889;-79
2021/03/11 08:09:55;;;;;;;;;;;;;;;8.43;84.32;99131.50;5098950;28;1333;-78
2021/03/11 08:12:41;;;;;;;;;;;;;;;10.94;76.97;99098.44;5099695;28;865;-79
2021/03/11 08:15:29;;;;;;;;;;;;;;;12.44;70.38;99095.03;5099440;28;856;-78
2021/03/11 08:17:55;;;;;;;;;;;;;;;12.14;70.23;99114.84;5097946;28;1294;-77
2021/03/11 08:20:20;;;;;;;;;;;;;;;10.14;76.21;99124.75;5097979;28;895;-77
2021/03/11 08:22:51;;;;;;;;;;;;;;;8.76;81.92;99099.72;5097953;28;861;-79
2021/03/11 08:25:32;;;;;;;;;;;;;;;8.32;83.31;99103.00;5099139;28;841;-78
2021/03/11 08:28:22;;;;;;;;;;;;;;;8.96;81.65;99096.81;5097657;28;1893;-77
2021/03/11 08:30:48;;;;;;;;;;;;;;;10.41;76.74;99094.19;5089400;28;2291;-77
2021/03/11 08:33:34;;;;;;;;;;;;;;;10.39;76.68;99086.31;5097583;28;872;-77
2021/03/11 08:36:00;;;;;;;;;;;;;;;12.93;68.04;99064.81;5097563;28;1807;-77
2021/03/11 08:38:45;;;;;;;;;;;;;;;13.86;63.40;99049.56;5097350;28;1419;-78
2021/03/11 08:41:13;;;;;;;;;;;;;;;13.70;62.36;99056.44;5097580;28;1479;-79
2021/03/11 08:43:39;;;;;;;;;;;;;;;13.39;64.37;99049.13;5097479;28;956;-77
2021/03/11 08:46:12;;;;;;;;;;;;;;;13.33;62.18;99063.41;5097122;28;1898;-77
2021/03/11 08:48:40;;;;;;;;;;;;;;;14.94;59.51;99040.09;5096774;28;1391;-78
2021/03/11 08:51:09;;;;;;;;;;;;;;;16.42;54.29;99047.72;5096993;28;899;-77
2021/03/11 08:53:38;;;;;;;;;;;;;;;15.09;56.43;99044.28;5096592;28;840;-76
2021/03/11 08:56:22;;;;;;;;;;;;;;;16.11;53.14;99031.16;5096817;28;836;-77
2021/03/11 08:58:59;;;;;;;;;;;;;;;12.94;60.84;99031.16;5096359;28;1314;-76
2021/03/11 09:01:45;;;;;;;;;;;;;;;12.70;61.61;99035.63;5096316;28;832;-77
2021/03/11 09:04:19;;;;;;;;;;;;;;;11.54;65.08;99019.59;5096641;28;833;-76
2021/03/11 09:06:51;;;;;;;;;;;;;;;11.40;66.29;99040.53;5096523;28;1881;-77
2021/03/11 09:09:46;;;;;;;;;;;;;;;12.89;61.40;99014.97;5096531;28;1290;-76
2021/03/11 09:12:11;;;;;;;;;;;;;;;13.24;61.31;99009.63;5096659;28;789;-76
2021/03/11 09:14:38;;;;;;;;;;;;;;;14.94;55.81;99010.31;5096280;28;853;-76
2021/03/11 09:17:05;;;;;;;;;;;;;;;13.81;57.32;99013.97;5096022;28;952;-76
2021/03/11 09:19:41;;;;;;;;;;;;;;;12.97;59.37;99005.41;5096060;28;1243;-74
2021/03/11 09:22:23;;;;;;;;;;;;;;;11.75;63.02;98991.97;5096366;28;956;-76
2021/03/11 09:24:57;;;;;;;;;;;;;;;11.83;61.56;99001.03;5095847;28;2027;-76
2021/03/11 09:27:24;;;;;;;;;;;;;;;10.83;66.14;99024.63;5095738;28;1889;-75
2021/03/11 09:29:50;;;;;;;;;;;;;;;10.20;67.12;99003.81;5096122;28;1441;-76
2021/03/11 09:32:16;;;;;;;;;;;;;;;10.54;66.82;98985.88;5095922;28;913;-75
2021/03/11 09:34:59;;;;;;;;;;;;;;;13.21;59.43;98979.94;5096228;28;896;-74
2021/03/11 09:37:43;;;;;;;;;;;;;;;15.67;51.28;98982.22;5095511;28;762;-76
2021/03/11 09:40:09;;;;;;;;;;;;;;;15.02;52.07;98966.56;5095560;28;1278;-75
2021/03/11 09:42:34;;;;;;;;;;;;;;;11.66;62.46;98992.38;5095591;28;1029;-74
2021/03/11 09:45:00;;;;;;;;;;;;;;;10.56;68.12;99012.28;5095611;28;840;-75
2021/03/11 09:47:29;;;;;;;;;;;;;;;11.90;64.82;98978.09;5095493;28;1901;-75
2021/03/11 09:50:08;;;;;;;;;;;;;;;12.28;61.86;98959.06;5096087;28;1336;-75
2021/03/11 09:52:52;;;;;;;;;;;;;;;12.58;61.27;98981.47;5095365;28;1507;-74
2021/03/11 09:55:18;;;;;;;;;;;;;;;11.88;62.94;98980.47;5095640;28;805;-76
2021/03/11 09:57:43;;;;;;;;;;;;;;;11.40;64.24;98971.44;5095195;28;898;-75
2021/03/11 10:00:09;;;;;;;;;;;;;;;11.62;62.26;98982.47;5095835;28;1341;-75
2021/03/11 10:02:54;;;;;;;;;;;;;;;12.70;58.30;98971.94;5095359;28;864;-75
2021/03/11 10:05:20;;;;;;;;;;;;;;;13.59;56.55;98969.75;5095382;28;876;-75
2021/03/11 10:07:56;;;;;;;;;;;;;;;16.09;49.17;98966.78;5095386;28;1894;-75
2021/03/11 10:10:22;;;;;;;;;;;;;;;16.85;46.17;98954.91;5095374;28;777;-74
2021/03/11 10:12:47;;;;;;;;;;;;;;;15.07;51.84;98959.72;5095028;28;814;-75
2021/03/11 10:15:14;;;;;;;;;;;;;;;14.97;52.99;98903.13;5094544;28;834;-75
2021/03/11 10:17:41;;;;;;;;;;;;;;;15.01;52.06;98939.97;5094974;28;853;-75
2021/03/11 10:20:24;;;;;;;;;;;;;;;12.93;56.84;98940.94;5080467;28;2132;-75
2021/03/11 10:22:49;;;;;;;;;;;;;;;11.31;62.99;98953.66;5056783;28;2168;-76
2021/03/11 10:25:16;;;;;;;;;;;;;;;12.31;65.86;98985.94;5060083;28;2121;-75
2021/03/11 10:27:47;;;;;;;;;;;;;;;14.61;59.82;98931.41;5074797;28;1926;-75
2021/03/11 10:30:24;;;;;;;;;;;;;;;14.91;53.98;98930.56;5075174;28;1313;-75
2021/03/11 10:32:54;;;;;;;;;;;;;;;14.70;53.30;98930.88;5074933;28;982;-75
2021/03/11 10:35:30;;;;;;;;;;;;;;;13.48;56.52;98931.03;5061040;28;1872;-75
2021/03/11 10:38:12;;;;;;;;;;;;;;;13.10;56.90;98911.53;5054290;28;1357;-75
2021/03/11 10:40:38;;;;;;;;;;;;;;;15.22;51.97;98911.81;5054559;28;933;-75
2021/03/11 10:43:24;;;;;;;;;;;;;;;17.34;45.62;98906.75;5063097;28;2090;-75
2021/03/11 10:45:49;;;;;;;;;;;;;;;15.37;49.28;98892.91;5057703;28;2100;-75
2021/03/11 10:48:15;;;;;;;;;;;;;;;13.83;53.69;98901.38;5054122;28;1290;-75
2021/03/11 10:50:43;;;;;;;;;;;;;;;12.85;56.50;98894.31;5054482;28;965;-75
2021/03/11 10:53:10;;;;;;;;;;;;;;;11.98;58.12;98874.59;5054310;28;833;-75
2021/03/11 10:55:37;;;;;;;;;;;;;;;11.61;59.88;98882.19;5061551;28;1019;-76
2021/03/11 10:58:04;;;;;;;;;;;;;;;11.50;59.91;98888.91;5072652;28;1266;-75
2021/03/11 11:00:32;;;;;;;;;;;;;;;11.51;59.61;98902.34;5070909;28;1990;-75
2021/03/11 11:02:59;;;;;;;;;;;;;;;11.79;59.18;98870.28;5054804;28;881;-75
2021/03/11 11:05:26;;;;;;;;;;;;;;;12.02;57.94;98875.38;5073548;28;2336;-75
2021/03/11 11:07:51;;;;;;;;;;;;;;;12.57;56.36;98862.84;5074244;28;1882;-75
2021/03/11 11:10:19;;;;;;;;;;;;;;;11.73;58.38;98864.41;5060664;28;1983;-75
2021/03/11 11:12:44;;;;;;;;;;;;;;;11.04;62.42;98866.47;5070787;28;2054;-75
2021/03/11 11:15:10;;;;;;;;;;;;;;;9.89;66.78;98888.22;5074620;28;925;-76
2021/03/11 11:17:36;;;;;;;;;;;;;;;9.26;71.65;98886.66;5074331;28;1044;-74
2021/03/11 11:20:03;;;;;;;;;;;;;;;9.11;75.00;98883.03;5073639;28;1880;-75
2021/03/11 11:22:29;;;;;;;;;;;;;;;8.72;77.71;98892.53;5072432;28;2024;-75
2021/03/11 11:24:54;;;;;;;;;;;;;;;8.34;79.70;98901.91;5055284;28;905;-75
2021/03/11 11:27:19;;;;;;;;;;;;;;;8.33;78.08;98878.34;5058494;28;1961;-75
2021/03/11 11:29:44;;;;;;;;;;;;;;;8.15;79.08;98887.16;5058622;28;2240;-75
2021/03/11 11:32:10;;;;;;;;;;;;;;;8.24;79.38;98892.38;5057992;28;1115;-75
2021/03/11 11:34:35;;;;;;;;;;;;;;;8.32;79.42;98877.53;5060642;28;2180;-75
2021/03/11 11:37:00;;;;;;;;;;;;;;;8.36;78.72;98883.88;5058393;28;959;-75
2021/03/11 11:39:26;;;;;;;;;;;;;;;8.44;78.83;98876.50;5058519;28;1865;-75
2021/03/11 11:41:51;;;;;;;;;;;;;;;8.40;78.69;98870.16;5057903;28;2121;-75
2021/03/11 11:44:18;;;;;;;;;;;;;;;8.16;80.36;98876.97;5065300;28;2106;-75
2021/03/11 11:46:43;;;;;;;;;;;;;;;8.01;80.87;98876.00;5081930;28;1964;-74
2021/03/11 11:49:10;;;;;;;;;;;;;;;7.91;80.25;98869.22;5071012;28;1258;-75
2021/03/11 11:51:35;;;;;;;;;;;;;;;7.77;81.09;98874.50;5094484;28;2070;-74
2021/03/11 11:54:01;;;;;;;;;;;;;;;7.62;82.05;98884.53;5087788;28;2137;-73
2021/03/11 11:56:26;;;;;;;;;;;;;;;7.56;83.11;98886.00;5068019;28;876;-75
2021/03/11 11:58:51;;;;;;;;;;;;;;;7.45;84.13;98888.59;5057052;28;1377;-75
2021/03/11 12:01:17;;;;;;;;;;;;;;;7.40;85.46;98897.94;5057975;28;781;-75
2021/03/11 12:03:43;;;;;;;;;;;;;;;7.37;85.91;98887.72;5058426;28;881;-75
2021/03/11 12:06:08;;;;;;;;;;;;;;;7.24;86.88;98903.59;5057211;28;1905;-75
2021/03/11 12:08:34;;;;;;;;;;;;;;;7.19;88.46;98892.13;5057167;28;1280;-76
2021/03/11 12:11:00;;;;;;;;;;;;;;;7.15;89.17;98900.31;5066811;28;1745;-76
2021/03/11 12:13:25;;;;;;;;;;;;;;;7.21;89.48;98887.06;5077888;28;912;-75
2021/03/11 12:15:50;;;;;;;;;;;;;;;7.20;88.75;98883.53;5077902;28;867;-75
2021/03/11 12:18:16;;;;;;;;;;;;;;;7.17;89.04;98886.22;5077242;28;1297;-75
2021/03/11 12:20:41;;;;;;;;;;;;;;;7.04;88.61;98882.88;5071897;28;2167;-75
2021/03/11 12:23:07;;;;;;;;;;;;;;;6.94;89.92;98874.09;5057015;28;988;-75
2021/03/11 12:25:34;;;;;;;;;;;;;;;6.89;89.78;98879.13;5067168;28;2115;-76
2021/03/11 12:28:00;;;;;;;;;;;;;;;6.78;89.86;98909.09;5076843;28;1885;-75
2021/03/11 12:30:26;;;;;;;;;;;;;;;6.75;90.25;98896.13;5072946;28;2248;-75
2021/03/11 12:32:52;;;;;;;;;;;;;;;6.73;90.89;98898.41;5077457;28;864;-75
2021/03/11 12:35:17;;;;;;;;;;;;;;;6.74;91.19;98884.34;5069937;28;2171;-75
2021/03/11 12:37:44;;;;;;;;;;;;;;;6.76;90.70;98898.47;5060341;28;2057;-75
2021/03/11 12:40:10;;;;;;;;;;;;;;;6.68;92.01;98893.22;5057361;28;1369;-75
2021/03/11 12:42:36;;;;;;;;;;;;;;;6.63;91.07;98916.28;5070123;28;1804;-76
2021/03/11 12:45:02;;;;;;;;;;;;;;;6.61;91.96;98913.13;5077038;28;906;-75
2021/03/11 12:47:27;;;;;;;;;;;;;;;6.64;91.26;98912.38;5075140;28;1894;-76
2021/03/11 12:49:52;;;;;;;;;;;;;;;6.63;92.20;98918.22;5076876;28;1254;-76
2021/03/11 12:52:17;;;;;;;;;;;;;;;6.65;92.74;98919.44;5077367;28;976;-76
2021/03/11 12:54:43;;;;;;;;;;;;;;;6.58;91.43;98954.97;5072211;28;1962;-76
2021/03/11 12:57:08;;;;;;;;;;;;;;;6.44;90.93;98919.03;5076593;28;801;-76
2021/03/11 12:59:33;;;;;;;;;;;;;;;6.38;90.12;98952.25;5076372;28;1282;-74
2021/03/11 13:01:59;;;;;;;;;;;;;;;6.27;90.05;98901.91;5076466;28;1050;-75
2021/03/11 13:04:24;;;;;;;;;;;;;;;6.13;91.02;98932.56;5076293;28;963;-76
2021/03/11 13:06:49;;;;;;;;;;;;;;;6.11;91.23;98921.16;5076382;28;1961;-76
2021/03/11 13:09:15;;;;;;;;;;;;;;;6.10;91.99;98919.56;5076646;28;1345;-76
2021/03/11 13:11:40;;;;;;;;;;;;;;;6.14;91.34;98947.03;5075831;28;829;-75
2021/03/11 13:14:05;;;;;;;;;;;;;;;6.14;90.69;98947.84;5076984;28;857;-75
2021/03/11 13:16:30;;;;;;;;;;;;;;;6.10;90.83;98974.38;5076973;28;892;-75